sensor_id;sensor_type;location;lat;lon;timestamp;P1;durP1;ratioP1;P2;durP2;ratioP2
75526;SDS011;64107;49.248;7.006;2023-05-10T00:00:43;1.77;;;1.08;;
75526;SDS011;64107;49.248;7.006;2023-05-10T00:03:09;1.20;;;0.82;;
75526;SDS011;64107;49.248;7.006;2023-05-10T00:05:35;1.67;;;1.02;;
75526;SDS011;64107;49.248;7.006;2023-05-10T00:08:01;1.75;;;1.20;;
75526;SDS011;64107;49.248;7.006;2023-05-10T00:10:27;1.45;;;0.85;;
75526;SDS011;64107;49.248;7.006;2023-05-10T00:12:53;1.58;;;1.05;;
75526;SDS011;64107;49.248;7.006;2023-05-10T00:15:19;1.65;;;1.27;;
75526;SDS011;64107;49.248;7.006;2023-05-10T00:17:45;2.28;;;1.48;;
75526;SDS011;64107;49.248;7.006;2023-05-10T00:20:11;1.27;;;1.00;;
75526;SDS011;64107;49.248;7.006;2023-05-10T00:22:37;2.38;;;1.63;;
75526;SDS011;64107;49.248;7.006;2023-05-10T00:25:04;1.83;;;1.27;;
75526;SDS011;64107;49.248;7.006;2023-05-10T00:27:31;2.33;;;1.60;;
75526;SDS011;64107;49.248;7.006;2023-05-10T00:29:57;1.67;;;1.38;;
75526;SDS011;64107;49.248;7.006;2023-05-10T00:32:23;2.25;;;1.70;;
75526;SDS011;64107;49.248;7.006;2023-05-10T00:34:49;2.83;;;1.95;;
75526;SDS011;64107;49.248;7.006;2023-05-10T00:37:15;3.30;;;2.03;;
75526;SDS011;64107;49.248;7.006;2023-05-10T00:39:41;3.28;;;1.95;;
75526;SDS011;64107;49.248;7.006;2023-05-10T00:42:07;2.15;;;1.40;;
75526;SDS011;64107;49.248;7.006;2023-05-10T00:44:34;2.40;;;1.92;;
75526;SDS011;64107;49.248;7.006;2023-05-10T00:47:00;3.28;;;2.70;;
75526;SDS011;64107;49.248;7.006;2023-05-10T00:49:26;3.42;;;2.28;;
75526;SDS011;64107;49.248;7.006;2023-05-10T00:51:52;3.05;;;1.95;;
75526;SDS011;64107;49.248;7.006;2023-05-10T00:54:18;6.22;;;2.70;;
75526;SDS011;64107;49.248;7.006;2023-05-10T00:56:45;5.15;;;2.70;;
75526;SDS011;64107;49.248;7.006;2023-05-10T00:59:14;2.13;;;0.90;;
75526;SDS011;64107;49.248;7.006;2023-05-10T01:01:42;3.90;;;2.50;;
75526;SDS011;64107;49.248;7.006;2023-05-10T01:04:14;3.28;;;2.13;;
75526;SDS011;64107;49.248;7.006;2023-05-10T01:06:40;2.92;;;2.28;;
75526;SDS011;64107;49.248;7.006;2023-05-10T01:09:07;3.30;;;2.28;;
75526;SDS011;64107;49.248;7.006;2023-05-10T01:11:34;2.85;;;2.00;;
75526;SDS011;64107;49.248;7.006;2023-05-10T01:14:00;1.90;;;1.45;;
75526;SDS011;64107;49.248;7.006;2023-05-10T01:16:27;2.05;;;1.85;;
75526;SDS011;64107;49.248;7.006;2023-05-10T01:19:00;3.72;;;2.15;;
75526;SDS011;64107;49.248;7.006;2023-05-10T01:27:44;2.83;;;2.08;;
75526;SDS011;64107;49.248;7.006;2023-05-10T01:30:31;3.30;;;2.08;;
75526;SDS011;64107;49.248;7.006;2023-05-10T01:33:19;4.10;;;2.45;;
75526;SDS011;64107;49.248;7.006;2023-05-10T01:35:51;1.75;;;1.35;;
75526;SDS011;64107;49.248;7.006;2023-05-10T01:38:29;3.03;;;2.10;;
75526;SDS011;64107;49.248;7.006;2023-05-10T01:41:21;4.05;;;2.03;;
75526;SDS011;64107;49.248;7.006;2023-05-10T01:46:42;6.15;;;2.40;;
75526;SDS011;64107;49.248;7.006;2023-05-10T01:49:16;4.28;;;2.40;;
75526;SDS011;64107;49.248;7.006;2023-05-10T01:51:52;2.65;;;1.85;;
75526;SDS011;64107;49.248;7.006;2023-05-10T01:54:19;2.55;;;2.00;;
75526;SDS011;64107;49.248;7.006;2023-05-10T01:56:47;4.80;;;2.00;;
75526;SDS011;64107;49.248;7.006;2023-05-10T01:59:27;4.72;;;2.08;;
75526;SDS011;64107;49.248;7.006;2023-05-10T02:01:54;3.95;;;2.70;;
75526;SDS011;64107;49.248;7.006;2023-05-10T02:04:23;5.63;;;2.53;;
75526;SDS011;64107;49.248;7.006;2023-05-10T02:06:51;5.57;;;3.08;;
75526;SDS011;64107;49.248;7.006;2023-05-10T02:09:18;3.45;;;2.53;;
75526;SDS011;64107;49.248;7.006;2023-05-10T02:11:45;4.35;;;2.95;;
75526;SDS011;64107;49.248;7.006;2023-05-10T02:14:13;3.13;;;2.42;;
75526;SDS011;64107;49.248;7.006;2023-05-10T02:16:40;4.47;;;2.72;;
75526;SDS011;64107;49.248;7.006;2023-05-10T02:19:07;3.67;;;2.95;;
75526;SDS011;64107;49.248;7.006;2023-05-10T02:21:34;4.28;;;2.30;;
75526;SDS011;64107;49.248;7.006;2023-05-10T02:24:01;4.95;;;2.95;;
75526;SDS011;64107;49.248;7.006;2023-05-10T02:26:28;3.55;;;2.58;;
75526;SDS011;64107;49.248;7.006;2023-05-10T02:28:55;7.22;;;2.03;;
75526;SDS011;64107;49.248;7.006;2023-05-10T02:31:23;3.63;;;2.33;;
75526;SDS011;64107;49.248;7.006;2023-05-10T02:33:49;3.20;;;2.03;;
75526;SDS011;64107;49.248;7.006;2023-05-10T02:36:16;6.15;;;3.40;;
75526;SDS011;64107;49.248;7.006;2023-05-10T02:38:42;4.43;;;2.50;;
75526;SDS011;64107;49.248;7.006;2023-05-10T02:41:09;1.80;;;1.42;;
75526;SDS011;64107;49.248;7.006;2023-05-10T02:43:36;3.95;;;2.67;;
75526;SDS011;64107;49.248;7.006;2023-05-10T02:46:03;4.45;;;3.42;;
75526;SDS011;64107;49.248;7.006;2023-05-10T02:48:29;5.63;;;3.33;;
75526;SDS011;64107;49.248;7.006;2023-05-10T02:50:56;4.85;;;3.63;;
75526;SDS011;64107;49.248;7.006;2023-05-10T02:53:30;4.93;;;3.33;;
75526;SDS011;64107;49.248;7.006;2023-05-10T02:55:57;4.25;;;3.60;;
75526;SDS011;64107;49.248;7.006;2023-05-10T02:58:25;5.95;;;4.60;;
75526;SDS011;64107;49.248;7.006;2023-05-10T03:00:51;3.72;;;2.75;;
75526;SDS011;64107;49.248;7.006;2023-05-10T03:03:18;4.85;;;3.10;;
75526;SDS011;64107;49.248;7.006;2023-05-10T03:05:45;5.55;;;3.13;;
75526;SDS011;64107;49.248;7.006;2023-05-10T03:08:12;2.17;;;1.85;;
75526;SDS011;64107;49.248;7.006;2023-05-10T03:10:40;5.28;;;3.88;;
75526;SDS011;64107;49.248;7.006;2023-05-10T03:16:02;6.40;;;3.97;;
75526;SDS011;64107;49.248;7.006;2023-05-10T03:18:44;4.05;;;3.10;;
75526;SDS011;64107;49.248;7.006;2023-05-10T03:21:14;4.30;;;3.17;;
75526;SDS011;64107;49.248;7.006;2023-05-10T03:23:46;4.80;;;2.85;;
75526;SDS011;64107;49.248;7.006;2023-05-10T03:26:20;4.60;;;3.03;;
75526;SDS011;64107;49.248;7.006;2023-05-10T03:28:50;6.13;;;3.38;;
75526;SDS011;64107;49.248;7.006;2023-05-10T03:31:17;4.00;;;3.10;;
75526;SDS011;64107;49.248;7.006;2023-05-10T03:33:50;3.78;;;2.55;;
75526;SDS011;64107;49.248;7.006;2023-05-10T03:36:16;2.92;;;2.30;;
75526;SDS011;64107;49.248;7.006;2023-05-10T03:38:43;4.85;;;3.90;;
75526;SDS011;64107;49.248;7.006;2023-05-10T03:41:09;4.53;;;3.28;;
75526;SDS011;64107;49.248;7.006;2023-05-10T03:43:35;4.43;;;3.33;;
75526;SDS011;64107;49.248;7.006;2023-05-10T03:46:04;3.75;;;2.83;;
75526;SDS011;64107;49.248;7.006;2023-05-10T03:48:31;8.00;;;3.42;;
75526;SDS011;64107;49.248;7.006;2023-05-10T03:50:58;5.07;;;3.47;;
75526;SDS011;64107;49.248;7.006;2023-05-10T03:53:24;5.45;;;3.50;;
75526;SDS011;64107;49.248;7.006;2023-05-10T03:55:50;4.85;;;3.33;;
75526;SDS011;64107;49.248;7.006;2023-05-10T03:58:16;7.20;;;3.58;;
75526;SDS011;64107;49.248;7.006;2023-05-10T04:00:43;6.50;;;3.92;;
75526;SDS011;64107;49.248;7.006;2023-05-10T04:03:10;5.90;;;4.10;;
75526;SDS011;64107;49.248;7.006;2023-05-10T04:05:37;4.45;;;3.60;;
75526;SDS011;64107;49.248;7.006;2023-05-10T04:08:03;7.55;;;4.00;;
75526;SDS011;64107;49.248;7.006;2023-05-10T04:10:29;2.78;;;2.30;;
75526;SDS011;64107;49.248;7.006;2023-05-10T04:12:55;5.45;;;4.10;;
75526;SDS011;64107;49.248;7.006;2023-05-10T04:15:21;3.10;;;2.33;;
75526;SDS011;64107;49.248;7.006;2023-05-10T04:17:47;5.80;;;3.33;;
75526;SDS011;64107;49.248;7.006;2023-05-10T04:20:14;3.90;;;2.85;;
75526;SDS011;64107;49.248;7.006;2023-05-10T04:22:40;3.35;;;2.42;;
75526;SDS011;64107;49.248;7.006;2023-05-10T04:25:06;5.25;;;3.33;;
75526;SDS011;64107;49.248;7.006;2023-05-10T04:27:32;2.80;;;2.03;;
75526;SDS011;64107;49.248;7.006;2023-05-10T04:29:59;6.45;;;4.00;;
75526;SDS011;64107;49.248;7.006;2023-05-10T04:32:25;4.65;;;1.85;;
75526;SDS011;64107;49.248;7.006;2023-05-10T04:34:51;3.28;;;2.63;;
75526;SDS011;64107;49.248;7.006;2023-05-10T04:37:18;3.53;;;2.38;;
75526;SDS011;64107;49.248;7.006;2023-05-10T04:39:44;2.50;;;1.92;;
75526;SDS011;64107;49.248;7.006;2023-05-10T04:42:10;4.00;;;2.67;;
75526;SDS011;64107;49.248;7.006;2023-05-10T04:44:37;2.83;;;2.03;;
75526;SDS011;64107;49.248;7.006;2023-05-10T04:47:03;2.15;;;1.30;;
75526;SDS011;64107;49.248;7.006;2023-05-10T04:49:29;4.97;;;2.20;;
75526;SDS011;64107;49.248;7.006;2023-05-10T04:51:55;3.47;;;2.08;;
75526;SDS011;64107;49.248;7.006;2023-05-10T04:54:21;1.83;;;1.52;;
75526;SDS011;64107;49.248;7.006;2023-05-10T04:56:47;3.47;;;2.20;;
75526;SDS011;64107;49.248;7.006;2023-05-10T04:59:13;2.00;;;1.77;;
75526;SDS011;64107;49.248;7.006;2023-05-10T05:01:39;2.75;;;1.88;;
75526;SDS011;64107;49.248;7.006;2023-05-10T05:04:05;2.30;;;1.60;;
75526;SDS011;64107;49.248;7.006;2023-05-10T05:06:32;2.15;;;1.73;;
75526;SDS011;64107;49.248;7.006;2023-05-10T05:08:58;2.28;;;1.50;;
75526;SDS011;64107;49.248;7.006;2023-05-10T05:11:24;1.92;;;1.33;;
75526;SDS011;64107;49.248;7.006;2023-05-10T05:13:50;2.00;;;1.60;;
75526;SDS011;64107;49.248;7.006;2023-05-10T05:16:17;2.03;;;1.40;;
75526;SDS011;64107;49.248;7.006;2023-05-10T05:18:43;2.20;;;1.50;;
75526;SDS011;64107;49.248;7.006;2023-05-10T05:21:15;2.38;;;1.95;;
75526;SDS011;64107;49.248;7.006;2023-05-10T05:23:42;2.53;;;1.55;;
75526;SDS011;64107;49.248;7.006;2023-05-10T05:26:08;2.22;;;1.70;;
75526;SDS011;64107;49.248;7.006;2023-05-10T05:28:34;1.90;;;1.70;;
75526;SDS011;64107;49.248;7.006;2023-05-10T05:31:02;3.55;;;1.48;;
75526;SDS011;64107;49.248;7.006;2023-05-10T05:33:29;1.50;;;1.13;;
75526;SDS011;64107;49.248;7.006;2023-05-10T05:35:55;0.77;;;0.73;;
75526;SDS011;64107;49.248;7.006;2023-05-10T05:38:21;4.80;;;1.65;;
75526;SDS011;64107;49.248;7.006;2023-05-10T05:40:48;1.60;;;1.20;;
75526;SDS011;64107;49.248;7.006;2023-05-10T05:43:14;3.13;;;2.10;;
75526;SDS011;64107;49.248;7.006;2023-05-10T05:45:40;2.70;;;1.45;;
75526;SDS011;64107;49.248;7.006;2023-05-10T05:48:06;3.60;;;1.23;;
75526;SDS011;64107;49.248;7.006;2023-05-10T05:50:32;1.48;;;1.35;;
75526;SDS011;64107;49.248;7.006;2023-05-10T05:52:58;1.98;;;1.33;;
75526;SDS011;64107;49.248;7.006;2023-05-10T05:55:24;1.58;;;1.35;;
75526;SDS011;64107;49.248;7.006;2023-05-10T05:57:51;1.20;;;1.00;;
75526;SDS011;64107;49.248;7.006;2023-05-10T06:00:17;1.38;;;1.13;;
75526;SDS011;64107;49.248;7.006;2023-05-10T06:02:43;1.48;;;1.30;;
75526;SDS011;64107;49.248;7.006;2023-05-10T06:05:09;1.10;;;1.00;;
75526;SDS011;64107;49.248;7.006;2023-05-10T06:07:35;1.08;;;0.98;;
75526;SDS011;64107;49.248;7.006;2023-05-10T06:10:01;0.90;;;0.75;;
75526;SDS011;64107;49.248;7.006;2023-05-10T06:12:27;1.17;;;1.05;;
75526;SDS011;64107;49.248;7.006;2023-05-10T06:14:53;1.05;;;0.93;;
75526;SDS011;64107;49.248;7.006;2023-05-10T06:17:19;0.70;;;0.70;;
75526;SDS011;64107;49.248;7.006;2023-05-10T06:19:46;1.38;;;0.98;;
75526;SDS011;64107;49.248;7.006;2023-05-10T06:22:12;0.57;;;0.57;;
75526;SDS011;64107;49.248;7.006;2023-05-10T06:24:38;0.80;;;0.73;;
75526;SDS011;64107;49.248;7.006;2023-05-10T06:27:05;2.83;;;1.10;;
75526;SDS011;64107;49.248;7.006;2023-05-10T06:29:32;1.52;;;0.82;;
75526;SDS011;64107;49.248;7.006;2023-05-10T06:31:58;0.63;;;0.45;;
75526;SDS011;64107;49.248;7.006;2023-05-10T06:34:24;1.30;;;1.02;;
75526;SDS011;64107;49.248;7.006;2023-05-10T06:36:50;0.98;;;0.88;;
75526;SDS011;64107;49.248;7.006;2023-05-10T06:39:16;2.63;;;1.52;;
75526;SDS011;64107;49.248;7.006;2023-05-10T06:41:43;0.65;;;0.65;;
75526;SDS011;64107;49.248;7.006;2023-05-10T06:44:09;0.73;;;0.68;;
75526;SDS011;64107;49.248;7.006;2023-05-10T06:46:35;1.27;;;1.00;;
75526;SDS011;64107;49.248;7.006;2023-05-10T06:49:01;0.55;;;0.55;;
75526;SDS011;64107;49.248;7.006;2023-05-10T06:51:27;1.45;;;1.00;;
75526;SDS011;64107;49.248;7.006;2023-05-10T06:53:53;1.45;;;1.35;;
75526;SDS011;64107;49.248;7.006;2023-05-10T06:56:19;1.20;;;0.95;;
75526;SDS011;64107;49.248;7.006;2023-05-10T06:58:46;2.47;;;1.13;;
75526;SDS011;64107;49.248;7.006;2023-05-10T07:01:13;2.40;;;0.93;;
75526;SDS011;64107;49.248;7.006;2023-05-10T07:03:39;1.45;;;1.13;;
75526;SDS011;64107;49.248;7.006;2023-05-10T07:06:05;1.02;;;0.82;;
75526;SDS011;64107;49.248;7.006;2023-05-10T07:08:32;0.70;;;0.38;;
75526;SDS011;64107;49.248;7.006;2023-05-10T07:11:00;1.73;;;1.20;;
75526;SDS011;64107;49.248;7.006;2023-05-10T07:13:26;3.20;;;1.20;;
75526;SDS011;64107;49.248;7.006;2023-05-10T07:15:52;0.80;;;0.65;;
75526;SDS011;64107;49.248;7.006;2023-05-10T07:18:19;1.13;;;0.60;;
75526;SDS011;64107;49.248;7.006;2023-05-10T07:20:45;1.23;;;0.80;;
75526;SDS011;64107;49.248;7.006;2023-05-10T07:23:11;2.58;;;1.10;;
75526;SDS011;64107;49.248;7.006;2023-05-10T07:25:37;2.03;;;0.88;;
75526;SDS011;64107;49.248;7.006;2023-05-10T07:28:03;2.47;;;0.73;;
75526;SDS011;64107;49.248;7.006;2023-05-10T07:30:30;0.70;;;0.60;;
75526;SDS011;64107;49.248;7.006;2023-05-10T07:32:56;2.30;;;0.63;;
75526;SDS011;64107;49.248;7.006;2023-05-10T07:35:22;3.25;;;1.13;;
75526;SDS011;64107;49.248;7.006;2023-05-10T07:37:48;2.92;;;1.08;;
75526;SDS011;64107;49.248;7.006;2023-05-10T07:40:14;1.70;;;0.65;;
75526;SDS011;64107;49.248;7.006;2023-05-10T07:42:40;0.40;;;0.40;;
75526;SDS011;64107;49.248;7.006;2023-05-10T07:45:06;0.45;;;0.45;;
75526;SDS011;64107;49.248;7.006;2023-05-10T07:47:33;0.50;;;0.50;;
75526;SDS011;64107;49.248;7.006;2023-05-10T07:49:59;1.30;;;0.40;;
75526;SDS011;64107;49.248;7.006;2023-05-10T07:52:25;1.02;;;0.60;;
75526;SDS011;64107;49.248;7.006;2023-05-10T07:54:51;0.57;;;0.50;;
75526;SDS011;64107;49.248;7.006;2023-05-10T07:57:18;1.27;;;0.73;;
75526;SDS011;64107;49.248;7.006;2023-05-10T07:59:44;0.90;;;0.60;;
75526;SDS011;64107;49.248;7.006;2023-05-10T08:02:10;1.63;;;0.70;;
75526;SDS011;64107;49.248;7.006;2023-05-10T08:04:36;0.50;;;0.43;;
75526;SDS011;64107;49.248;7.006;2023-05-10T08:07:02;1.27;;;0.73;;
75526;SDS011;64107;49.248;7.006;2023-05-10T08:09:28;1.05;;;0.43;;
75526;SDS011;64107;49.248;7.006;2023-05-10T08:11:54;3.50;;;0.88;;
75526;SDS011;64107;49.248;7.006;2023-05-10T08:14:21;2.40;;;0.88;;
75526;SDS011;64107;49.248;7.006;2023-05-10T08:16:47;5.28;;;1.30;;
75526;SDS011;64107;49.248;7.006;2023-05-10T08:19:13;4.38;;;0.90;;
75526;SDS011;64107;49.248;7.006;2023-05-10T08:21:43;1.95;;;0.43;;
75526;SDS011;64107;49.248;7.006;2023-05-10T08:24:10;1.02;;;0.68;;
75526;SDS011;64107;49.248;7.006;2023-05-10T08:26:36;0.88;;;0.77;;
75526;SDS011;64107;49.248;7.006;2023-05-10T08:29:02;3.28;;;0.80;;
75526;SDS011;64107;49.248;7.006;2023-05-10T08:31:28;1.77;;;0.60;;
75526;SDS011;64107;49.248;7.006;2023-05-10T08:33:54;2.50;;;1.02;;
75526;SDS011;64107;49.248;7.006;2023-05-10T08:36:20;3.15;;;1.05;;
75526;SDS011;64107;49.248;7.006;2023-05-10T08:38:50;2.78;;;0.77;;
75526;SDS011;64107;49.248;7.006;2023-05-10T08:41:18;1.60;;;0.98;;
75526;SDS011;64107;49.248;7.006;2023-05-10T08:43:46;1.88;;;1.00;;
75526;SDS011;64107;49.248;7.006;2023-05-10T08:46:16;0.52;;;0.52;;
75526;SDS011;64107;49.248;7.006;2023-05-10T08:48:46;2.15;;;0.77;;
75526;SDS011;64107;49.248;7.006;2023-05-10T08:51:14;4.80;;;0.93;;
75526;SDS011;64107;49.248;7.006;2023-05-10T08:53:45;1.40;;;1.17;;
75526;SDS011;64107;49.248;7.006;2023-05-10T08:56:11;5.47;;;0.77;;
75526;SDS011;64107;49.248;7.006;2023-05-10T08:58:37;3.30;;;0.68;;
75526;SDS011;64107;49.248;7.006;2023-05-10T09:01:04;1.73;;;0.70;;
75526;SDS011;64107;49.248;7.006;2023-05-10T09:03:31;2.67;;;0.60;;
75526;SDS011;64107;49.248;7.006;2023-05-10T09:05:57;5.18;;;0.82;;
75526;SDS011;64107;49.248;7.006;2023-05-10T09:08:23;1.65;;;0.75;;
75526;SDS011;64107;49.248;7.006;2023-05-10T09:10:53;2.25;;;0.90;;
75526;SDS011;64107;49.248;7.006;2023-05-10T09:13:20;1.80;;;0.68;;
75526;SDS011;64107;49.248;7.006;2023-05-10T09:15:48;0.60;;;0.55;;
75526;SDS011;64107;49.248;7.006;2023-05-10T09:18:14;2.67;;;1.05;;
75526;SDS011;64107;49.248;7.006;2023-05-10T09:20:40;2.05;;;0.65;;
75526;SDS011;64107;49.248;7.006;2023-05-10T09:23:07;1.17;;;0.98;;
75526;SDS011;64107;49.248;7.006;2023-05-10T09:25:33;1.65;;;0.55;;
75526;SDS011;64107;49.248;7.006;2023-05-10T09:28:00;4.20;;;1.08;;
75526;SDS011;64107;49.248;7.006;2023-05-10T09:30:27;1.63;;;0.52;;
75526;SDS011;64107;49.248;7.006;2023-05-10T09:32:54;1.63;;;0.85;;
75526;SDS011;64107;49.248;7.006;2023-05-10T09:35:23;2.40;;;0.80;;
75526;SDS011;64107;49.248;7.006;2023-05-10T09:37:51;2.55;;;0.90;;
75526;SDS011;64107;49.248;7.006;2023-05-10T09:40:22;1.35;;;0.55;;
75526;SDS011;64107;49.248;7.006;2023-05-10T09:45:25;0.95;;;0.55;;
75526;SDS011;64107;49.248;7.006;2023-05-10T09:47:53;1.25;;;0.80;;
75526;SDS011;64107;49.248;7.006;2023-05-10T09:50:20;0.75;;;0.45;;
75526;SDS011;64107;49.248;7.006;2023-05-10T09:52:53;2.15;;;0.65;;
75526;SDS011;64107;49.248;7.006;2023-05-10T09:55:23;3.00;;;0.80;;
75526;SDS011;64107;49.248;7.006;2023-05-10T09:58:00;1.67;;;0.55;;
75526;SDS011;64107;49.248;7.006;2023-05-10T10:00:27;1.55;;;0.60;;
75526;SDS011;64107;49.248;7.006;2023-05-10T10:02:59;2.88;;;0.60;;
75526;SDS011;64107;49.248;7.006;2023-05-10T10:05:33;2.15;;;1.08;;
75526;SDS011;64107;49.248;7.006;2023-05-10T10:08:01;2.50;;;0.80;;
75526;SDS011;64107;49.248;7.006;2023-05-10T10:10:28;0.90;;;0.63;;
75526;SDS011;64107;49.248;7.006;2023-05-10T10:12:54;0.50;;;0.47;;
75526;SDS011;64107;49.248;7.006;2023-05-10T10:15:21;0.65;;;0.50;;
75526;SDS011;64107;49.248;7.006;2023-05-10T10:17:48;0.75;;;0.52;;
75526;SDS011;64107;49.248;7.006;2023-05-10T10:20:15;1.10;;;0.60;;
75526;SDS011;64107;49.248;7.006;2023-05-10T10:22:41;1.17;;;0.60;;
75526;SDS011;64107;49.248;7.006;2023-05-10T10:25:14;1.52;;;0.60;;
75526;SDS011;64107;49.248;7.006;2023-05-10T10:32:49;0.95;;;0.60;;
75526;SDS011;64107;49.248;7.006;2023-05-10T10:35:43;1.33;;;0.60;;
75526;SDS011;64107;49.248;7.006;2023-05-10T10:38:11;2.88;;;0.60;;
75526;SDS011;64107;49.248;7.006;2023-05-10T10:40:38;0.95;;;0.38;;
75526;SDS011;64107;49.248;7.006;2023-05-10T10:46:23;0.95;;;0.22;;
75526;SDS011;64107;49.248;7.006;2023-05-10T10:49:08;1.27;;;0.30;;
75526;SDS011;64107;49.248;7.006;2023-05-10T10:51:38;1.23;;;0.43;;
75526;SDS011;64107;49.248;7.006;2023-05-10T10:54:10;0.28;;;0.28;;
75526;SDS011;64107;49.248;7.006;2023-05-10T10:56:37;2.40;;;0.80;;
75526;SDS011;64107;49.248;7.006;2023-05-10T10:59:03;0.50;;;0.50;;
75526;SDS011;64107;49.248;7.006;2023-05-10T11:01:35;1.05;;;0.50;;
75526;SDS011;64107;49.248;7.006;2023-05-10T11:06:30;1.63;;;0.60;;
75526;SDS011;64107;49.248;7.006;2023-05-10T11:08:58;1.65;;;0.60;;
75526;SDS011;64107;49.248;7.006;2023-05-10T11:11:25;2.58;;;0.63;;
75526;SDS011;64107;49.248;7.006;2023-05-10T11:13:51;0.77;;;0.60;;
75526;SDS011;64107;49.248;7.006;2023-05-10T11:16:21;1.00;;;0.63;;
75526;SDS011;64107;49.248;7.006;2023-05-10T11:18:57;1.30;;;0.98;;
75526;SDS011;64107;49.248;7.006;2023-05-10T11:21:27;0.73;;;0.47;;
75526;SDS011;64107;49.248;7.006;2023-05-10T11:23:55;0.47;;;0.30;;
75526;SDS011;64107;49.248;7.006;2023-05-10T11:26:23;1.25;;;0.63;;
75526;SDS011;64107;49.248;7.006;2023-05-10T11:28:51;0.73;;;0.52;;
75526;SDS011;64107;49.248;7.006;2023-05-10T11:31:20;1.92;;;0.77;;
75526;SDS011;64107;49.248;7.006;2023-05-10T11:33:47;0.45;;;0.40;;
75526;SDS011;64107;49.248;7.006;2023-05-10T11:36:15;3.97;;;0.80;;
75526;SDS011;64107;49.248;7.006;2023-05-10T11:38:42;1.83;;;0.43;;
75526;SDS011;64107;49.248;7.006;2023-05-10T11:41:08;0.60;;;0.40;;
75526;SDS011;64107;49.248;7.006;2023-05-10T11:43:36;0.30;;;0.30;;
75526;SDS011;64107;49.248;7.006;2023-05-10T11:46:04;1.20;;;0.50;;
75526;SDS011;64107;49.248;7.006;2023-05-10T11:48:31;0.40;;;0.35;;
75526;SDS011;64107;49.248;7.006;2023-05-10T11:50:57;0.60;;;0.40;;
75526;SDS011;64107;49.248;7.006;2023-05-10T11:53:25;0.60;;;0.60;;
75526;SDS011;64107;49.248;7.006;2023-05-10T11:55:52;1.42;;;0.30;;
75526;SDS011;64107;49.248;7.006;2023-05-10T11:58:18;1.02;;;0.60;;
75526;SDS011;64107;49.248;7.006;2023-05-10T12:00:46;1.65;;;0.43;;
75526;SDS011;64107;49.248;7.006;2023-05-10T12:03:13;0.80;;;0.43;;
75526;SDS011;64107;49.248;7.006;2023-05-10T12:05:39;0.35;;;0.30;;
75526;SDS011;64107;49.248;7.006;2023-05-10T12:08:19;0.30;;;0.20;;
75526;SDS011;64107;49.248;7.006;2023-05-10T12:10:50;2.92;;;0.57;;
75526;SDS011;64107;49.248;7.006;2023-05-10T12:13:16;0.50;;;0.40;;
75526;SDS011;64107;49.248;7.006;2023-05-10T12:15:43;0.95;;;0.32;;
75526;SDS011;64107;49.248;7.006;2023-05-10T12:18:09;0.98;;;0.30;;
75526;SDS011;64107;49.248;7.006;2023-05-10T12:20:36;0.57;;;0.50;;
75526;SDS011;64107;49.248;7.006;2023-05-10T12:23:02;3.42;;;0.60;;
75526;SDS011;64107;49.248;7.006;2023-05-10T12:25:30;1.38;;;0.45;;
75526;SDS011;64107;49.248;7.006;2023-05-10T12:27:58;1.77;;;0.63;;
75526;SDS011;64107;49.248;7.006;2023-05-10T12:30:29;1.33;;;0.38;;
75526;SDS011;64107;49.248;7.006;2023-05-10T12:33:00;1.15;;;0.47;;
75526;SDS011;64107;49.248;7.006;2023-05-10T12:37:57;2.28;;;0.40;;
75526;SDS011;64107;49.248;7.006;2023-05-10T12:40:23;1.33;;;0.50;;
75526;SDS011;64107;49.248;7.006;2023-05-10T12:42:49;0.52;;;0.40;;
75526;SDS011;64107;49.248;7.006;2023-05-10T12:45:16;0.73;;;0.40;;
75526;SDS011;64107;49.248;7.006;2023-05-10T12:47:43;1.08;;;0.70;;
75526;SDS011;64107;49.248;7.006;2023-05-10T12:50:09;0.93;;;0.20;;
75526;SDS011;64107;49.248;7.006;2023-05-10T12:52:35;1.75;;;0.32;;
75526;SDS011;64107;49.248;7.006;2023-05-10T12:55:02;1.75;;;0.50;;
75526;SDS011;64107;49.248;7.006;2023-05-10T12:57:28;0.30;;;0.30;;
75526;SDS011;64107;49.248;7.006;2023-05-10T12:59:54;1.10;;;0.60;;
75526;SDS011;64107;49.248;7.006;2023-05-10T13:02:20;1.55;;;0.38;;
75526;SDS011;64107;49.248;7.006;2023-05-10T13:04:48;0.13;;;0.13;;
75526;SDS011;64107;49.248;7.006;2023-05-10T13:07:14;0.75;;;0.20;;
75526;SDS011;64107;49.248;7.006;2023-05-10T13:09:40;0.20;;;0.20;;
75526;SDS011;64107;49.248;7.006;2023-05-10T13:12:06;1.77;;;0.35;;
75526;SDS011;64107;49.248;7.006;2023-05-10T13:14:32;0.25;;;0.20;;
75526;SDS011;64107;49.248;7.006;2023-05-10T13:16:58;0.65;;;0.60;;
75526;SDS011;64107;49.248;7.006;2023-05-10T13:19:25;0.32;;;0.30;;
75526;SDS011;64107;49.248;7.006;2023-05-10T13:21:51;0.55;;;0.50;;
75526;SDS011;64107;49.248;7.006;2023-05-10T13:24:17;1.30;;;0.43;;
75526;SDS011;64107;49.248;7.006;2023-05-10T13:26:44;2.53;;;0.50;;
75526;SDS011;64107;49.248;7.006;2023-05-10T13:29:10;1.92;;;0.40;;
75526;SDS011;64107;49.248;7.006;2023-05-10T13:31:36;1.52;;;0.47;;
75526;SDS011;64107;49.248;7.006;2023-05-10T13:34:03;1.95;;;0.50;;
75526;SDS011;64107;49.248;7.006;2023-05-10T13:36:29;1.02;;;0.35;;
75526;SDS011;64107;49.248;7.006;2023-05-10T13:38:56;0.88;;;0.60;;
75526;SDS011;64107;49.248;7.006;2023-05-10T13:41:22;0.30;;;0.30;;
75526;SDS011;64107;49.248;7.006;2023-05-10T13:43:48;0.65;;;0.32;;
75526;SDS011;64107;49.248;7.006;2023-05-10T13:46:14;0.98;;;0.40;;
75526;SDS011;64107;49.248;7.006;2023-05-10T13:48:40;0.40;;;0.40;;
75526;SDS011;64107;49.248;7.006;2023-05-10T13:51:06;0.63;;;0.35;;
75526;SDS011;64107;49.248;7.006;2023-05-10T13:53:32;0.93;;;0.40;;
75526;SDS011;64107;49.248;7.006;2023-05-10T13:55:58;0.40;;;0.35;;
75526;SDS011;64107;49.248;7.006;2023-05-10T13:58:25;3.85;;;0.55;;
75526;SDS011;64107;49.248;7.006;2023-05-10T14:00:51;0.55;;;0.43;;
75526;SDS011;64107;49.248;7.006;2023-05-10T14:03:17;0.57;;;0.57;;
75526;SDS011;64107;49.248;7.006;2023-05-10T14:05:43;0.30;;;0.30;;
75526;SDS011;64107;49.248;7.006;2023-05-10T14:08:10;0.35;;;0.35;;
75526;SDS011;64107;49.248;7.006;2023-05-10T14:10:38;1.00;;;0.40;;
75526;SDS011;64107;49.248;7.006;2023-05-10T14:13:04;0.70;;;0.40;;
75526;SDS011;64107;49.248;7.006;2023-05-10T14:15:31;1.58;;;0.73;;
75526;SDS011;64107;49.248;7.006;2023-05-10T14:17:57;0.35;;;0.28;;
75526;SDS011;64107;49.248;7.006;2023-05-10T14:20:23;1.58;;;0.52;;
75526;SDS011;64107;49.248;7.006;2023-05-10T14:22:49;0.45;;;0.45;;
75526;SDS011;64107;49.248;7.006;2023-05-10T14:25:15;2.30;;;0.40;;
75526;SDS011;64107;49.248;7.006;2023-05-10T14:27:41;0.13;;;0.13;;
75526;SDS011;64107;49.248;7.006;2023-05-10T14:30:07;1.50;;;0.30;;
75526;SDS011;64107;49.248;7.006;2023-05-10T14:32:34;0.22;;;0.22;;
75526;SDS011;64107;49.248;7.006;2023-05-10T14:35:01;0.90;;;0.32;;
75526;SDS011;64107;49.248;7.006;2023-05-10T14:37:27;0.40;;;0.40;;
75526;SDS011;64107;49.248;7.006;2023-05-10T14:39:53;1.25;;;0.50;;
75526;SDS011;64107;49.248;7.006;2023-05-10T14:42:19;1.85;;;0.57;;
75526;SDS011;64107;49.248;7.006;2023-05-10T14:44:46;0.63;;;0.32;;
75526;SDS011;64107;49.248;7.006;2023-05-10T14:47:12;0.32;;;0.22;;
75526;SDS011;64107;49.248;7.006;2023-05-10T14:49:38;2.28;;;0.30;;
75526;SDS011;64107;49.248;7.006;2023-05-10T14:52:04;0.32;;;0.30;;
75526;SDS011;64107;49.248;7.006;2023-05-10T14:54:30;1.33;;;0.70;;
75526;SDS011;64107;49.248;7.006;2023-05-10T14:56:58;1.60;;;0.80;;
75526;SDS011;64107;49.248;7.006;2023-05-10T14:59:25;1.50;;;0.75;;
75526;SDS011;64107;49.248;7.006;2023-05-10T15:01:51;2.13;;;0.38;;
75526;SDS011;64107;49.248;7.006;2023-05-10T15:04:17;1.48;;;0.47;;
75526;SDS011;64107;49.248;7.006;2023-05-10T15:06:43;2.03;;;0.85;;
75526;SDS011;64107;49.248;7.006;2023-05-10T15:09:09;2.10;;;0.63;;
75526;SDS011;64107;49.248;7.006;2023-05-10T15:11:36;2.50;;;0.75;;
75526;SDS011;64107;49.248;7.006;2023-05-10T15:14:02;2.33;;;0.70;;
75526;SDS011;64107;49.248;7.006;2023-05-10T15:16:28;1.02;;;0.68;;